createdAt,value
2023-05-08T00:02:11.778Z,12.23
2023-05-08T00:04:38.965Z,13.95
2023-05-08T00:07:06.535Z,12.20
2023-05-08T00:09:33.769Z,12.82
2023-05-08T00:12:03.934Z,12.93
2023-05-08T00:14:31.070Z,12.90
2023-05-08T00:16:58.358Z,14.27
2023-05-08T00:19:25.849Z,13.05
2023-05-08T00:21:53.016Z,13.48
2023-05-08T00:24:20.250Z,13.07
2023-05-08T00:26:47.587Z,12.85
2023-05-08T00:29:15.046Z,12.27
2023-05-08T00:31:42.257Z,12.48
2023-05-08T00:34:09.423Z,12.45
2023-05-08T00:36:36.529Z,13.15
2023-05-08T00:39:03.725Z,13.88
2023-05-08T00:41:30.844Z,12.40
2023-05-08T00:43:58.059Z,16.63
2023-05-08T00:46:25.356Z,14.23
2023-05-08T00:48:52.585Z,15.18
2023-05-08T00:51:19.906Z,12.80
2023-05-08T00:53:47.178Z,15.30
2023-05-08T00:56:15.386Z,15.70
2023-05-08T00:58:42.902Z,14.73
2023-05-08T01:01:10.673Z,15.25
2023-05-08T01:03:38.589Z,14.90
2023-05-08T01:06:07.088Z,13.68
2023-05-08T01:08:34.460Z,13.95
2023-05-08T01:11:01.620Z,14.32
2023-05-08T01:13:41.658Z,15.70
2023-05-08T01:16:16.551Z,16.42
2023-05-08T01:18:47.674Z,14.65
2023-05-08T01:21:32.370Z,16.33
2023-05-08T01:24:18.366Z,19.67
2023-05-08T01:26:45.525Z,16.48
2023-05-08T01:29:31.030Z,18.33
2023-05-08T01:32:18.624Z,17.02
2023-05-08T01:35:06.110Z,17.55
2023-05-08T01:37:39.059Z,14.98
2023-05-08T01:40:12.150Z,14.48
2023-05-08T01:42:45.374Z,14.35
2023-05-08T01:45:17.456Z,14.85
2023-05-08T01:47:45.889Z,14.52
2023-05-08T01:50:18.940Z,19.13
2023-05-08T01:52:54.039Z,17.15
2023-05-08T01:55:25.572Z,16.48
2023-05-08T01:57:55.144Z,16.20
2023-05-08T02:00:23.829Z,21.55
2023-05-08T02:02:51.904Z,19.38
2023-05-08T02:05:21.306Z,21.77
2023-05-08T02:07:49.923Z,17.58
2023-05-08T02:10:17.457Z,19.02
2023-05-08T02:12:45.337Z,17.58
2023-05-08T02:15:14.265Z,21.55
2023-05-08T02:17:42.316Z,23.20
2023-05-08T02:20:14.873Z,20.50
2023-05-08T02:22:44.140Z,24.38
2023-05-08T02:25:14.850Z,21.35
2023-05-08T02:27:46.545Z,18.52
2023-05-08T02:30:14.998Z,21.20
2023-05-08T02:32:44.590Z,19.50
2023-05-08T02:35:15.834Z,19.00
2023-05-08T02:37:46.612Z,17.50
2023-05-08T02:40:14.929Z,21.33
2023-05-08T02:42:42.464Z,19.98
2023-05-08T02:45:12.366Z,20.73
2023-05-08T02:47:58.537Z,23.92
2023-05-08T02:50:29.863Z,19.70
2023-05-08T02:53:03.459Z,25.13
2023-05-08T02:55:34.444Z,18.95
2023-05-08T02:58:04.868Z,23.20
2023-05-08T03:00:33.541Z,20.77
2023-05-08T03:03:02.156Z,19.55
2023-05-08T03:05:33.431Z,22.88
2023-05-08T03:08:04.844Z,20.85
2023-05-08T03:10:36.011Z,25.50
2023-05-08T03:13:04.697Z,20.80
2023-05-08T03:15:36.830Z,21.48
2023-05-08T03:18:07.315Z,17.80
2023-05-08T03:20:36.216Z,20.08
2023-05-08T03:23:04.099Z,16.92
2023-05-08T03:25:31.765Z,17.58
2023-05-08T03:27:59.318Z,19.55
2023-05-08T03:30:27.864Z,15.77
2023-05-08T03:32:55.962Z,17.38
2023-05-08T03:35:23.460Z,17.40
2023-05-08T03:37:50.702Z,17.40
2023-05-08T03:40:17.945Z,20.83
2023-05-08T03:42:45.291Z,19.33
2023-05-08T03:45:14.852Z,24.75
2023-05-08T03:47:42.458Z,20.42
2023-05-08T03:50:11.134Z,23.77
2023-05-08T03:52:39.185Z,19.48
2023-05-08T03:55:06.638Z,22.52
2023-05-08T03:57:37.091Z,16.55
2023-05-08T04:00:07.243Z,21.02
2023-05-08T04:02:41.986Z,18.77
2023-05-08T04:05:21.843Z,15.77
2023-05-08T04:07:54.089Z,15.98
2023-05-08T04:10:31.782Z,20.77
2023-05-08T04:13:10.248Z,15.15
2023-05-08T04:15:45.004Z,16.27
2023-05-08T04:18:15.761Z,14.77
2023-05-08T04:20:44.097Z,38.58
2023-05-08T04:23:14.998Z,39.38
2023-05-08T04:25:43.548Z,36.60
2023-05-08T04:28:11.157Z,37.72
2023-05-08T04:30:38.583Z,28.35
2023-05-08T04:33:06.279Z,20.25
2023-05-08T04:35:34.371Z,24.35
2023-05-08T04:38:01.716Z,26.00
2023-05-08T04:40:28.939Z,16.50
2023-05-08T04:42:56.243Z,16.77
2023-05-08T04:45:23.546Z,21.52
2023-05-08T04:47:50.845Z,22.38
2023-05-08T04:50:18.113Z,19.80
2023-05-08T04:52:45.269Z,24.02
2023-05-08T04:55:12.646Z,20.65
2023-05-08T04:57:40.034Z,22.67
2023-05-08T05:00:07.528Z,22.45
2023-05-08T05:02:34.737Z,21.63
2023-05-08T05:05:02.149Z,24.00
2023-05-08T05:07:29.370Z,27.75
2023-05-08T05:09:56.504Z,25.25
2023-05-08T05:12:23.714Z,25.02
2023-05-08T05:14:50.841Z,32.17
2023-05-08T05:17:18.022Z,34.03
2023-05-08T05:19:45.229Z,26.35
2023-05-08T05:22:12.449Z,30.48
2023-05-08T05:24:40.897Z,27.17
2023-05-08T05:27:08.041Z,22.23
2023-05-08T05:29:35.201Z,26.83
2023-05-08T05:32:03.317Z,23.58
2023-05-08T05:34:30.514Z,21.75
2023-05-08T05:36:57.674Z,23.05
2023-05-08T05:39:24.861Z,18.48
2023-05-08T05:41:52.086Z,17.58
2023-05-08T05:44:19.300Z,17.95
2023-05-08T05:46:46.637Z,16.55
2023-05-08T05:49:13.806Z,16.52
2023-05-08T05:51:40.948Z,15.55
2023-05-08T05:54:08.093Z,14.68
2023-05-08T05:56:35.286Z,17.52
2023-05-08T05:59:02.551Z,18.23
2023-05-08T06:01:29.769Z,15.68
2023-05-08T06:03:57.082Z,13.75
2023-05-08T06:06:24.932Z,11.15
2023-05-08T06:08:52.308Z,11.60
2023-05-08T06:11:19.483Z,12.00
2023-05-08T06:13:47.711Z,9.43
2023-05-08T06:16:16.320Z,8.88
2023-05-08T06:18:43.546Z,14.68
2023-05-08T06:21:10.712Z,12.15
2023-05-08T06:23:37.858Z,11.70
2023-05-08T06:26:05.095Z,13.80
2023-05-08T06:28:32.279Z,17.80
2023-05-08T06:30:59.471Z,13.93
2023-05-08T06:33:27.061Z,15.23
2023-05-08T06:35:54.393Z,11.50
2023-05-08T06:38:21.600Z,13.07
2023-05-08T06:40:50.825Z,15.38
2023-05-08T06:43:18.041Z,10.40
2023-05-08T06:45:45.704Z,11.80
2023-05-08T06:48:12.856Z,17.95
2023-05-08T06:50:40.788Z,20.63
2023-05-08T06:53:08.794Z,13.82
2023-05-08T06:55:36.028Z,15.68
2023-05-08T06:58:03.189Z,13.90
2023-05-08T07:00:30.480Z,13.88
2023-05-08T07:02:57.671Z,11.93
2023-05-08T07:05:24.906Z,8.98
2023-05-08T07:07:54.164Z,12.40
2023-05-08T07:10:23.047Z,9.00
2023-05-08T07:12:50.714Z,25.10
2023-05-08T07:17:51.676Z,12.80
2023-05-08T07:20:18.920Z,10.25
2023-05-08T07:22:46.636Z,18.40
2023-05-08T07:25:14.065Z,7.93
2023-05-08T07:27:42.780Z,7.45
2023-05-08T07:30:10.174Z,6.43
2023-05-08T07:32:39.214Z,5.80
2023-05-08T07:35:10.430Z,6.78
2023-05-08T07:37:38.359Z,10.20
2023-05-08T07:40:05.748Z,5.10
2023-05-08T07:42:38.501Z,7.32
2023-05-08T07:45:05.773Z,4.30
2023-05-08T07:47:33.038Z,4.22
2023-05-08T07:50:00.287Z,4.93
2023-05-08T07:52:27.502Z,4.68
2023-05-08T07:54:54.665Z,3.83
2023-05-08T07:57:21.854Z,3.72
2023-05-08T07:59:49.010Z,3.40
2023-05-08T08:02:16.294Z,5.30
2023-05-08T08:04:43.414Z,3.78
2023-05-08T08:07:11.009Z,3.95
2023-05-08T08:09:38.391Z,3.78
2023-05-08T08:12:05.681Z,3.55
2023-05-08T08:14:33.175Z,3.33
2023-05-08T08:17:00.385Z,5.03
2023-05-08T08:19:27.559Z,4.80
2023-05-08T08:21:54.733Z,4.03
2023-05-08T08:24:22.149Z,5.35
2023-05-08T08:26:49.384Z,4.78
2023-05-08T08:29:16.696Z,4.70
2023-05-08T08:31:44.093Z,3.45
2023-05-08T08:34:11.560Z,3.63
2023-05-08T08:36:39.754Z,3.78
2023-05-08T08:39:08.519Z,3.83
2023-05-08T08:41:39.570Z,3.78
2023-05-08T08:44:07.000Z,3.55
2023-05-08T08:46:34.901Z,4.28
2023-05-08T08:49:04.627Z,3.20
2023-05-08T08:51:44.346Z,4.20
2023-05-08T08:54:13.378Z,3.50
2023-05-08T08:56:43.072Z,4.00
2023-05-08T08:59:12.050Z,4.13
2023-05-08T09:01:40.630Z,7.47
2023-05-08T09:04:09.147Z,5.10
2023-05-08T09:06:37.405Z,5.80
2023-05-08T09:09:06.721Z,4.50
2023-05-08T09:11:34.160Z,4.43
2023-05-08T09:14:01.958Z,3.85
2023-05-08T09:16:29.295Z,3.95
2023-05-08T09:18:56.751Z,5.68
2023-05-08T09:21:24.282Z,3.67
2023-05-08T09:23:57.684Z,7.55
2023-05-08T09:26:33.486Z,8.55
2023-05-08T09:29:10.973Z,4.55
2023-05-08T09:31:41.798Z,5.80
2023-05-08T09:34:09.719Z,10.50
2023-05-08T09:36:37.240Z,5.03
2023-05-08T09:39:04.520Z,4.63
2023-05-08T09:41:31.647Z,4.10
2023-05-08T09:44:05.717Z,4.60
2023-05-08T09:46:34.136Z,4.15
2023-05-08T09:49:02.293Z,6.05
2023-05-08T09:51:31.592Z,4.18
2023-05-08T09:53:59.311Z,6.15
2023-05-08T09:56:36.794Z,5.72
2023-05-08T09:59:04.971Z,5.55
2023-05-08T10:01:33.346Z,4.30
2023-05-08T10:04:01.434Z,5.05
2023-05-08T10:06:29.517Z,3.67
2023-05-08T10:09:09.585Z,4.05
2023-05-08T10:11:37.370Z,6.45
2023-05-08T10:14:04.732Z,4.10
2023-05-08T10:16:32.085Z,3.70
2023-05-08T10:19:02.287Z,4.93
2023-05-08T10:21:30.133Z,4.68
2023-05-08T10:23:58.025Z,7.05
2023-05-08T10:26:30.631Z,4.82
2023-05-08T10:28:58.660Z,9.50
2023-05-08T10:31:26.340Z,5.75
2023-05-08T10:33:56.417Z,4.97
2023-05-08T10:36:25.057Z,6.15
2023-05-08T10:38:52.585Z,3.88
2023-05-08T10:41:20.518Z,4.18
2023-05-08T10:43:47.776Z,5.53
2023-05-08T10:46:50.690Z,6.65
2023-05-08T10:49:20.541Z,4.95
2023-05-08T10:52:03.008Z,4.38
2023-05-08T10:54:33.248Z,5.97
2023-05-08T10:57:18.549Z,4.13
2023-05-08T10:59:47.041Z,5.90
2023-05-08T11:02:15.356Z,3.78
2023-05-08T11:04:43.942Z,7.57
2023-05-08T11:07:11.570Z,3.42
2023-05-08T11:09:41.885Z,3.40
2023-05-08T11:12:16.767Z,3.70
2023-05-08T11:14:45.324Z,3.40
2023-05-08T11:17:12.568Z,5.07
2023-05-08T11:19:39.839Z,3.75
2023-05-08T11:22:24.850Z,5.45
2023-05-08T11:24:58.084Z,4.05
2023-05-08T11:27:42.857Z,4.18
2023-05-08T11:30:19.224Z,3.95
2023-05-08T11:33:05.270Z,4.72
2023-05-08T11:35:51.992Z,3.97
2023-05-08T11:38:28.180Z,3.72
2023-05-08T11:41:02.462Z,3.75
2023-05-08T11:43:38.468Z,4.55
2023-05-08T11:46:08.494Z,3.50
2023-05-08T11:48:36.095Z,3.45
2023-05-08T11:51:04.115Z,2.92
2023-05-08T11:53:31.571Z,3.00
2023-05-08T11:55:59.366Z,5.07
2023-05-08T11:58:26.843Z,3.38
2023-05-08T12:00:54.777Z,3.70
2023-05-08T12:03:23.304Z,3.00
2023-05-08T12:05:50.977Z,2.67
2023-05-08T12:08:18.750Z,3.63
2023-05-08T12:10:56.754Z,4.70
2023-05-08T12:13:28.101Z,2.75
2023-05-08T12:15:56.840Z,4.93
2023-05-08T12:18:24.615Z,2.70
2023-05-08T12:20:52.953Z,2.75
2023-05-08T12:23:20.888Z,6.55
2023-05-08T12:25:48.153Z,4.07
2023-05-08T12:28:16.501Z,4.05
2023-05-08T12:30:43.907Z,4.43
2023-05-08T12:33:11.843Z,3.88
2023-05-08T12:35:39.827Z,3.03
2023-05-08T12:38:07.786Z,2.70
2023-05-08T12:40:36.083Z,3.30
2023-05-08T12:43:04.500Z,2.67
2023-05-08T12:45:33.726Z,3.47
2023-05-08T12:48:02.317Z,4.63
2023-05-08T12:50:32.950Z,8.65
2023-05-08T12:53:05.990Z,4.75
2023-05-08T12:55:34.245Z,3.38
2023-05-08T12:58:09.233Z,3.00
2023-05-08T13:00:46.376Z,2.75
2023-05-08T13:03:14.974Z,3.55
2023-05-08T13:05:43.253Z,2.42
2023-05-08T13:08:11.398Z,2.45
2023-05-08T13:10:51.966Z,2.90
2023-05-08T13:13:26.280Z,2.53
2023-05-08T13:15:54.492Z,2.53
2023-05-08T13:18:22.485Z,4.25
2023-05-08T13:20:49.683Z,2.22
2023-05-08T13:23:16.899Z,2.88
2023-05-08T13:25:44.054Z,2.75
2023-05-08T13:28:11.316Z,2.20
2023-05-08T13:30:38.702Z,2.05
2023-05-08T13:33:06.415Z,3.75
2023-05-08T13:35:34.416Z,2.15
2023-05-08T13:38:01.880Z,1.65
2023-05-08T13:40:29.715Z,1.50
2023-05-08T13:42:56.859Z,1.92
2023-05-08T13:45:24.043Z,1.60
2023-05-08T13:47:51.488Z,3.80
2023-05-08T13:50:21.666Z,3.20
2023-05-08T13:52:49.178Z,3.00
2023-05-08T13:55:16.817Z,1.65
2023-05-08T13:57:44.276Z,2.85
2023-05-08T14:00:11.828Z,1.10
2023-05-08T14:02:39.379Z,1.17
2023-05-08T14:05:10.068Z,0.93
2023-05-08T14:07:37.236Z,1.77
2023-05-08T14:10:04.891Z,1.58
2023-05-08T14:12:36.050Z,1.30
2023-05-08T14:15:04.957Z,2.92
2023-05-08T14:17:32.241Z,4.03
2023-05-08T14:19:59.488Z,3.20
2023-05-08T14:22:29.309Z,1.73
2023-05-08T14:24:56.509Z,2.63
2023-05-08T14:27:23.699Z,1.90
2023-05-08T14:29:50.943Z,1.83
2023-05-08T14:32:18.108Z,3.63
2023-05-08T14:34:45.413Z,1.60
2023-05-08T14:37:13.101Z,1.67
2023-05-08T14:39:40.412Z,0.98
2023-05-08T14:44:37.721Z,1.27
2023-05-08T14:47:04.982Z,4.80
2023-05-08T14:49:37.984Z,4.68
2023-05-08T14:52:05.857Z,0.98
2023-05-08T14:54:33.190Z,2.10
2023-05-08T14:57:00.790Z,1.77
2023-05-08T14:59:28.038Z,1.00
2023-05-08T15:01:55.318Z,1.48
2023-05-08T15:04:22.810Z,2.38
2023-05-08T15:06:50.066Z,0.88
2023-05-08T15:09:17.390Z,0.73
2023-05-08T15:11:44.879Z,3.95
2023-05-08T15:14:12.137Z,4.18
2023-05-08T15:16:39.621Z,2.42
2023-05-08T15:19:06.862Z,1.20
2023-05-08T15:21:34.237Z,1.05
2023-05-08T15:24:01.396Z,5.07
2023-05-08T15:26:28.554Z,1.05
2023-05-08T15:28:55.748Z,1.27
2023-05-08T15:31:22.990Z,3.08
2023-05-08T15:33:50.572Z,1.25
2023-05-08T15:36:17.870Z,1.00
2023-05-08T15:38:45.060Z,0.90
2023-05-08T15:41:15.098Z,1.00
2023-05-08T15:43:45.157Z,2.50
2023-05-08T15:46:12.397Z,1.17
2023-05-08T15:48:39.712Z,3.15
2023-05-08T15:51:06.896Z,2.22
2023-05-08T15:53:35.334Z,2.70
2023-05-08T15:56:02.526Z,2.72
2023-05-08T15:58:29.716Z,1.40
2023-05-08T16:00:57.700Z,1.13
2023-05-08T16:03:25.290Z,1.98
2023-05-08T16:05:52.572Z,1.15
2023-05-08T16:08:20.168Z,2.58
2023-05-08T16:10:48.486Z,1.63
2023-05-08T16:13:16.446Z,1.77
2023-05-08T16:15:43.784Z,2.38
2023-05-08T16:18:11.302Z,1.52
2023-05-08T16:20:40.546Z,17.88
2023-05-08T16:23:08.051Z,8.02
2023-05-08T16:25:35.261Z,4.80
2023-05-08T16:28:02.495Z,1.52
2023-05-08T16:30:29.837Z,2.80
2023-05-08T16:32:57.057Z,1.38
2023-05-08T16:35:24.277Z,2.83
2023-05-08T16:37:51.549Z,1.63
2023-05-08T16:40:18.768Z,2.58
2023-05-08T16:42:45.989Z,2.42
2023-05-08T16:45:13.609Z,2.42
2023-05-08T16:47:41.065Z,8.98
2023-05-08T16:50:08.633Z,4.95
2023-05-08T16:52:36.518Z,8.02
2023-05-08T16:55:03.694Z,25.80
2023-05-08T16:57:31.046Z,5.93
2023-05-08T16:59:58.177Z,3.65
2023-05-08T17:02:25.839Z,1.65
2023-05-08T17:04:53.008Z,1.58
2023-05-08T17:07:20.215Z,1.58
2023-05-08T17:09:52.886Z,2.25
2023-05-08T17:12:20.151Z,1.23
2023-05-08T17:14:47.717Z,3.63
2023-05-08T17:17:14.847Z,1.85
2023-05-08T17:19:44.751Z,12.13
2023-05-08T17:22:13.109Z,2.25
2023-05-08T17:24:40.256Z,12.90
2023-05-08T17:27:07.720Z,7.85
2023-05-08T17:29:35.532Z,2.70
2023-05-08T17:32:02.918Z,7.05
2023-05-08T17:34:32.957Z,4.32
2023-05-08T17:37:00.149Z,5.95
2023-05-08T17:39:27.281Z,11.68
2023-05-08T17:41:55.534Z,9.70
2023-05-08T17:44:24.761Z,4.25
2023-05-08T17:46:51.997Z,1.30
2023-05-08T17:49:19.672Z,0.80
2023-05-08T17:51:46.892Z,4.78
2023-05-08T17:54:14.155Z,3.45
2023-05-08T17:56:41.318Z,2.25
2023-05-08T17:59:08.487Z,4.45
2023-05-08T18:01:35.765Z,1.52
2023-05-08T18:04:03.004Z,1.50
2023-05-08T18:06:31.526Z,2.15
2023-05-08T18:08:58.772Z,1.65
2023-05-08T18:11:27.085Z,1.60
2023-05-08T18:13:54.449Z,1.95
2023-05-08T18:16:23.626Z,3.60
2023-05-08T18:18:51.973Z,1.35
2023-05-08T18:21:19.292Z,1.27
2023-05-08T18:23:46.565Z,1.55
2023-05-08T18:26:14.696Z,2.20
2023-05-08T18:28:44.066Z,3.38
2023-05-08T18:31:15.991Z,1.80
2023-05-08T18:33:43.162Z,1.65
2023-05-08T18:36:10.393Z,4.05
2023-05-08T18:38:37.654Z,2.83
2023-05-08T18:41:06.179Z,4.78
2023-05-08T18:43:33.493Z,5.75
2023-05-08T18:46:00.947Z,4.70
2023-05-08T18:48:29.410Z,2.28
2023-05-08T18:50:58.621Z,4.32
2023-05-08T18:53:26.016Z,5.50
2023-05-08T18:55:53.283Z,1.92
2023-05-08T18:58:20.718Z,5.22
2023-05-08T19:00:48.788Z,3.55
2023-05-08T19:03:16.473Z,3.63
2023-05-08T19:05:45.366Z,4.63
2023-05-08T19:08:13.438Z,4.10
2023-05-08T19:10:41.062Z,3.70
2023-05-08T19:13:08.315Z,1.73
2023-05-08T19:15:35.529Z,3.88
2023-05-08T19:18:03.297Z,3.72
2023-05-08T19:20:30.731Z,2.08
2023-05-08T19:22:57.932Z,4.30
2023-05-08T19:25:25.513Z,2.85
2023-05-08T19:27:53.442Z,2.38
2023-05-08T19:30:20.984Z,2.67
2023-05-08T19:32:48.459Z,2.33
2023-05-08T19:35:15.771Z,4.65
2023-05-08T19:37:43.194Z,5.00
2023-05-08T19:40:11.796Z,3.65
2023-05-08T19:42:39.858Z,3.28
2023-05-08T19:45:07.315Z,2.47
2023-05-08T19:47:34.602Z,2.53
2023-05-08T19:50:01.767Z,3.38
2023-05-08T19:52:30.493Z,6.68
2023-05-08T19:54:58.127Z,2.20
2023-05-08T19:57:25.427Z,2.22
2023-05-08T19:59:52.955Z,3.75
2023-05-08T20:02:21.395Z,2.08
2023-05-08T20:05:14.244Z,2.58
2023-05-08T20:07:35.735Z,3.38
2023-05-08T20:10:03.237Z,2.88
2023-05-08T20:12:30.362Z,2.22
2023-05-08T20:14:57.858Z,3.22
2023-05-08T20:17:25.285Z,2.35
2023-05-08T20:19:52.779Z,2.70
2023-05-08T20:22:20.026Z,3.40
2023-05-08T20:24:47.180Z,5.55
2023-05-08T20:27:14.371Z,2.75
2023-05-08T20:29:41.654Z,3.10
2023-05-08T20:32:13.630Z,5.47
2023-05-08T20:34:41.529Z,3.45
2023-05-08T20:37:08.705Z,6.60
2023-05-08T20:39:35.997Z,3.08
2023-05-08T20:42:03.133Z,3.15
2023-05-08T20:44:30.474Z,3.92
2023-05-08T20:46:57.616Z,2.97
2023-05-08T20:49:25.009Z,3.67
2023-05-08T20:51:52.543Z,2.75
2023-05-08T20:54:19.792Z,5.88
2023-05-08T20:56:47.385Z,5.88
2023-05-08T20:59:16.668Z,5.32
2023-05-08T21:01:43.922Z,2.92
2023-05-08T21:06:52.497Z,3.53
2023-05-08T21:09:19.702Z,2.72
2023-05-08T21:11:46.897Z,3.20
2023-05-08T21:14:14.154Z,3.42
2023-05-08T21:16:41.417Z,2.97
2023-05-08T21:19:09.938Z,2.78
2023-05-08T21:21:37.218Z,3.28
2023-05-08T21:24:04.903Z,6.13
2023-05-08T21:26:32.101Z,4.07
2023-05-08T21:29:00.498Z,6.05
2023-05-08T21:31:29.091Z,3.63
2023-05-08T21:33:56.716Z,6.72
2023-05-08T21:36:23.859Z,3.80
2023-05-08T21:38:52.063Z,3.38
2023-05-08T21:41:19.307Z,4.97
2023-05-08T21:43:46.528Z,3.70
2023-05-08T21:46:13.712Z,5.30
2023-05-08T21:48:40.954Z,3.42
2023-05-08T21:51:08.460Z,3.70
2023-05-08T21:53:35.677Z,5.75
2023-05-08T21:56:04.880Z,3.92
2023-05-08T21:58:32.072Z,4.90
2023-05-08T22:00:59.340Z,6.80
2023-05-08T22:03:27.010Z,4.18
2023-05-08T22:05:55.525Z,4.13
2023-05-08T22:08:23.273Z,6.40
2023-05-08T22:10:51.183Z,4.10
2023-05-08T22:13:21.772Z,4.55
2023-05-08T22:15:49.128Z,5.18
2023-05-08T22:18:16.323Z,5.78
2023-05-08T22:20:43.553Z,4.50
2023-05-08T22:23:11.056Z,5.07
2023-05-08T22:25:38.241Z,4.85
2023-05-08T22:28:05.528Z,6.05
2023-05-08T22:30:32.782Z,4.13
2023-05-08T22:33:00.245Z,4.72
2023-05-08T22:35:28.267Z,5.28
2023-05-08T22:37:57.296Z,6.07
2023-05-08T22:40:24.932Z,16.77
2023-05-08T22:42:53.444Z,6.32
2023-05-08T22:45:21.137Z,4.35
2023-05-08T22:47:48.463Z,4.63
2023-05-08T22:50:17.231Z,4.90
2023-05-08T22:52:44.668Z,7.60
2023-05-08T22:55:11.990Z,4.82
2023-05-08T22:57:39.337Z,6.90
2023-05-08T23:00:07.285Z,5.55
2023-05-08T23:02:35.350Z,5.38
2023-05-08T23:05:02.876Z,4.40
2023-05-08T23:07:30.478Z,4.35
2023-05-08T23:09:57.639Z,6.63
2023-05-08T23:12:24.915Z,3.97
2023-05-08T23:14:52.583Z,6.10
2023-05-08T23:17:19.869Z,4.70
2023-05-08T23:19:47.080Z,5.35
2023-05-08T23:22:14.249Z,8.80
2023-05-08T23:24:41.477Z,6.22
2023-05-08T23:27:08.641Z,6.53
2023-05-08T23:29:36.057Z,4.93
2023-05-08T23:32:03.285Z,6.35
2023-05-08T23:34:30.842Z,5.47
2023-05-08T23:36:58.104Z,6.95
2023-05-08T23:39:25.434Z,5.95
2023-05-08T23:41:53.136Z,5.97
2023-05-08T23:44:20.899Z,4.10
2023-05-08T23:46:48.067Z,4.45
2023-05-08T23:49:15.486Z,8.13
2023-05-08T23:51:42.604Z,8.65
2023-05-08T23:54:09.726Z,4.80
2023-05-08T23:56:37.059Z,5.40
2023-05-08T23:59:04.317Z,4.93
